Mali Ston, Croatia
Current Conditions -  °F | °C
As of 8:30 PM on Sunday 25 Jan 2015 (Local Time) from LDDU Reporting Station
Broken Clouds Broken Clouds  
Wind Chill: 39°   Ceiling: 4500
Heat Index: 46°   Visibility: 6mi
Dew Point: 27°   Wind: 20mph
Humidity: 46%   Direction: 20°NNE
Pressure: 29.91"   Gusts: NA
Location:  42.84°N, 17.69°E
Report Text: LDDU 251830Z 02017KT 350V070 9999 BKN045 08/M03 Q1013 NOSIG
Loading
Personal Weather Stations






























Interactive Weather Map New forecast layout! Learn more

10-Day Weather Forecast

Advertisements
Track Severe Weather on mobile